sensor_id;sensor_type;location;lat;lon;timestamp;P1;durP1;ratioP1;P2;durP2;ratioP2
5539;SDS011;2792;52.452;9.752;2022-10-15T00:00:16;19.80;;;13.03;;
5539;SDS011;2792;52.452;9.752;2022-10-15T00:02:43;22.70;;;14.77;;
5539;SDS011;2792;52.452;9.752;2022-10-15T00:05:10;20.13;;;14.40;;
5539;SDS011;2792;52.452;9.752;2022-10-15T00:07:38;22.20;;;15.17;;
5539;SDS011;2792;52.452;9.752;2022-10-15T00:10:05;21.93;;;14.60;;
5539;SDS011;2792;52.452;9.752;2022-10-15T00:12:32;21.87;;;14.87;;
5539;SDS011;2792;52.452;9.752;2022-10-15T00:14:59;20.13;;;14.40;;
5539;SDS011;2792;52.452;9.752;2022-10-15T00:17:25;24.37;;;14.80;;
5539;SDS011;2792;52.452;9.752;2022-10-15T00:19:52;19.70;;;13.67;;
5539;SDS011;2792;52.452;9.752;2022-10-15T00:22:19;20.67;;;14.97;;
5539;SDS011;2792;52.452;9.752;2022-10-15T00:24:47;22.07;;;14.93;;
5539;SDS011;2792;52.452;9.752;2022-10-15T00:27:13;24.57;;;15.47;;
5539;SDS011;2792;52.452;9.752;2022-10-15T00:29:40;21.50;;;15.00;;
5539;SDS011;2792;52.452;9.752;2022-10-15T00:32:07;23.87;;;15.33;;
5539;SDS011;2792;52.452;9.752;2022-10-15T00:34:34;26.13;;;17.20;;
5539;SDS011;2792;52.452;9.752;2022-10-15T00:37:01;24.83;;;16.23;;
5539;SDS011;2792;52.452;9.752;2022-10-15T00:39:28;27.70;;;17.30;;
5539;SDS011;2792;52.452;9.752;2022-10-15T00:41:56;29.03;;;18.00;;
5539;SDS011;2792;52.452;9.752;2022-10-15T00:47:28;27.83;;;17.10;;
5539;SDS011;2792;52.452;9.752;2022-10-15T00:49:58;31.47;;;18.93;;
5539;SDS011;2792;52.452;9.752;2022-10-15T00:52:29;32.23;;;19.20;;
5539;SDS011;2792;52.452;9.752;2022-10-15T00:55:02;31.73;;;19.87;;
5539;SDS011;2792;52.452;9.752;2022-10-15T00:57:33;31.97;;;18.23;;
5539;SDS011;2792;52.452;9.752;2022-10-15T01:00:01;33.73;;;19.57;;
5539;SDS011;2792;52.452;9.752;2022-10-15T01:02:32;32.20;;;18.37;;
5539;SDS011;2792;52.452;9.752;2022-10-15T01:04:58;31.90;;;18.73;;
5539;SDS011;2792;52.452;9.752;2022-10-15T01:07:25;33.70;;;20.20;;
5539;SDS011;2792;52.452;9.752;2022-10-15T01:09:52;34.77;;;19.33;;
5539;SDS011;2792;52.452;9.752;2022-10-15T01:12:22;37.13;;;19.70;;
5539;SDS011;2792;52.452;9.752;2022-10-15T01:14:58;36.00;;;19.40;;
5539;SDS011;2792;52.452;9.752;2022-10-15T01:17:30;38.13;;;20.60;;
5539;SDS011;2792;52.452;9.752;2022-10-15T01:23:11;32.83;;;17.50;;
5539;SDS011;2792;52.452;9.752;2022-10-15T01:26:01;38.27;;;19.97;;
5539;SDS011;2792;52.452;9.752;2022-10-15T01:28:39;40.10;;;19.53;;
5539;SDS011;2792;52.452;9.752;2022-10-15T01:31:10;37.10;;;19.70;;
5539;SDS011;2792;52.452;9.752;2022-10-15T01:33:43;33.30;;;18.53;;
5539;SDS011;2792;52.452;9.752;2022-10-15T01:36:14;30.50;;;17.23;;
5539;SDS011;2792;52.452;9.752;2022-10-15T01:38:47;35.00;;;20.00;;
5539;SDS011;2792;52.452;9.752;2022-10-15T01:41:17;37.60;;;20.40;;
5539;SDS011;2792;52.452;9.752;2022-10-15T01:43:50;35.67;;;19.07;;
5539;SDS011;2792;52.452;9.752;2022-10-15T01:46:22;38.07;;;19.80;;
5539;SDS011;2792;52.452;9.752;2022-10-15T01:48:50;29.47;;;15.80;;
5539;SDS011;2792;52.452;9.752;2022-10-15T01:51:18;35.50;;;17.13;;
5539;SDS011;2792;52.452;9.752;2022-10-15T01:53:45;32.10;;;18.80;;
5539;SDS011;2792;52.452;9.752;2022-10-15T01:56:13;33.30;;;18.90;;
5539;SDS011;2792;52.452;9.752;2022-10-15T01:58:43;35.90;;;18.37;;
5539;SDS011;2792;52.452;9.752;2022-10-15T02:01:10;32.27;;;16.63;;
5539;SDS011;2792;52.452;9.752;2022-10-15T02:03:48;33.37;;;17.37;;
5539;SDS011;2792;52.452;9.752;2022-10-15T02:06:17;34.57;;;18.40;;
5539;SDS011;2792;52.452;9.752;2022-10-15T02:08:50;30.83;;;16.43;;
5539;SDS011;2792;52.452;9.752;2022-10-15T02:11:22;30.27;;;17.47;;
5539;SDS011;2792;52.452;9.752;2022-10-15T02:13:50;36.30;;;18.43;;
5539;SDS011;2792;52.452;9.752;2022-10-15T02:16:20;38.80;;;20.40;;
5539;SDS011;2792;52.452;9.752;2022-10-15T02:18:50;36.53;;;19.00;;
5539;SDS011;2792;52.452;9.752;2022-10-15T02:21:24;33.13;;;17.37;;
5539;SDS011;2792;52.452;9.752;2022-10-15T02:23:55;39.70;;;19.73;;
5539;SDS011;2792;52.452;9.752;2022-10-15T02:26:25;34.73;;;18.27;;
5539;SDS011;2792;52.452;9.752;2022-10-15T02:28:53;33.93;;;18.53;;
5539;SDS011;2792;52.452;9.752;2022-10-15T02:31:22;36.13;;;17.40;;
5539;SDS011;2792;52.452;9.752;2022-10-15T02:33:51;42.17;;;20.40;;
5539;SDS011;2792;52.452;9.752;2022-10-15T02:36:20;40.60;;;20.00;;
5539;SDS011;2792;52.452;9.752;2022-10-15T02:38:47;38.97;;;19.80;;
5539;SDS011;2792;52.452;9.752;2022-10-15T02:41:16;34.57;;;17.60;;
5539;SDS011;2792;52.452;9.752;2022-10-15T02:43:43;43.03;;;18.60;;
5539;SDS011;2792;52.452;9.752;2022-10-15T02:46:10;40.37;;;20.40;;
5539;SDS011;2792;52.452;9.752;2022-10-15T02:48:37;36.17;;;18.10;;
5539;SDS011;2792;52.452;9.752;2022-10-15T02:51:06;35.43;;;17.13;;
5539;SDS011;2792;52.452;9.752;2022-10-15T02:53:32;38.57;;;19.17;;
5539;SDS011;2792;52.452;9.752;2022-10-15T02:55:59;39.73;;;17.53;;
5539;SDS011;2792;52.452;9.752;2022-10-15T02:58:26;32.57;;;16.23;;
5539;SDS011;2792;52.452;9.752;2022-10-15T03:00:53;38.60;;;16.87;;
5539;SDS011;2792;52.452;9.752;2022-10-15T03:03:20;41.03;;;18.23;;
5539;SDS011;2792;52.452;9.752;2022-10-15T03:05:47;33.47;;;16.37;;
5539;SDS011;2792;52.452;9.752;2022-10-15T03:08:15;35.17;;;16.10;;
5539;SDS011;2792;52.452;9.752;2022-10-15T03:10:41;35.57;;;17.50;;
5539;SDS011;2792;52.452;9.752;2022-10-15T03:13:09;34.97;;;17.10;;
5539;SDS011;2792;52.452;9.752;2022-10-15T03:15:36;38.13;;;18.13;;
5539;SDS011;2792;52.452;9.752;2022-10-15T03:18:03;35.30;;;16.43;;
5539;SDS011;2792;52.452;9.752;2022-10-15T03:20:30;35.10;;;17.27;;
5539;SDS011;2792;52.452;9.752;2022-10-15T03:22:57;34.80;;;16.97;;
5539;SDS011;2792;52.452;9.752;2022-10-15T03:25:25;34.00;;;15.90;;
5539;SDS011;2792;52.452;9.752;2022-10-15T03:27:52;32.40;;;17.03;;
5539;SDS011;2792;52.452;9.752;2022-10-15T03:30:18;33.80;;;15.77;;
5539;SDS011;2792;52.452;9.752;2022-10-15T03:32:45;30.47;;;15.13;;
5539;SDS011;2792;52.452;9.752;2022-10-15T03:35:12;42.50;;;20.23;;
5539;SDS011;2792;52.452;9.752;2022-10-15T03:37:39;38.60;;;17.10;;
5539;SDS011;2792;52.452;9.752;2022-10-15T03:40:06;44.27;;;19.13;;
5539;SDS011;2792;52.452;9.752;2022-10-15T03:42:35;42.53;;;18.50;;
5539;SDS011;2792;52.452;9.752;2022-10-15T03:45:02;36.47;;;16.07;;
5539;SDS011;2792;52.452;9.752;2022-10-15T03:47:29;42.60;;;17.83;;
5539;SDS011;2792;52.452;9.752;2022-10-15T03:49:56;42.17;;;17.90;;
5539;SDS011;2792;52.452;9.752;2022-10-15T03:52:22;35.00;;;16.30;;
5539;SDS011;2792;52.452;9.752;2022-10-15T03:54:49;32.53;;;16.10;;
5539;SDS011;2792;52.452;9.752;2022-10-15T03:57:15;35.27;;;16.63;;
5539;SDS011;2792;52.452;9.752;2022-10-15T03:59:44;51.30;;;21.10;;
5539;SDS011;2792;52.452;9.752;2022-10-15T04:02:10;59.80;;;24.17;;
5539;SDS011;2792;52.452;9.752;2022-10-15T04:04:37;66.93;;;25.00;;
5539;SDS011;2792;52.452;9.752;2022-10-15T04:07:05;70.93;;;26.40;;
5539;SDS011;2792;52.452;9.752;2022-10-15T04:09:31;85.73;;;29.07;;
5539;SDS011;2792;52.452;9.752;2022-10-15T04:11:58;80.07;;;28.27;;
5539;SDS011;2792;52.452;9.752;2022-10-15T04:14:25;73.17;;;27.10;;
5539;SDS011;2792;52.452;9.752;2022-10-15T04:16:53;84.90;;;28.40;;
5539;SDS011;2792;52.452;9.752;2022-10-15T04:19:20;86.73;;;29.17;;
5539;SDS011;2792;52.452;9.752;2022-10-15T04:21:47;80.07;;;28.13;;
5539;SDS011;2792;52.452;9.752;2022-10-15T04:24:14;87.60;;;29.87;;
5539;SDS011;2792;52.452;9.752;2022-10-15T04:26:40;84.70;;;29.03;;
5539;SDS011;2792;52.452;9.752;2022-10-15T04:29:07;83.23;;;28.63;;
5539;SDS011;2792;52.452;9.752;2022-10-15T04:31:34;76.40;;;26.53;;
5539;SDS011;2792;52.452;9.752;2022-10-15T04:34:03;69.10;;;23.80;;
5539;SDS011;2792;52.452;9.752;2022-10-15T04:36:30;67.90;;;24.37;;
5539;SDS011;2792;52.452;9.752;2022-10-15T04:38:56;64.07;;;22.67;;
5539;SDS011;2792;52.452;9.752;2022-10-15T04:41:23;70.60;;;25.60;;
5539;SDS011;2792;52.452;9.752;2022-10-15T04:43:50;66.00;;;25.50;;
5539;SDS011;2792;52.452;9.752;2022-10-15T04:46:16;66.40;;;24.70;;
5539;SDS011;2792;52.452;9.752;2022-10-15T04:48:44;50.97;;;20.80;;
5539;SDS011;2792;52.452;9.752;2022-10-15T04:51:12;65.47;;;22.90;;
5539;SDS011;2792;52.452;9.752;2022-10-15T04:53:40;58.40;;;22.80;;
5539;SDS011;2792;52.452;9.752;2022-10-15T04:56:10;58.27;;;22.50;;
5539;SDS011;2792;52.452;9.752;2022-10-15T04:58:37;58.00;;;22.17;;
5539;SDS011;2792;52.452;9.752;2022-10-15T05:01:05;59.77;;;22.30;;
5539;SDS011;2792;52.452;9.752;2022-10-15T05:03:33;47.40;;;19.03;;
5539;SDS011;2792;52.452;9.752;2022-10-15T05:06:00;53.23;;;19.30;;
5539;SDS011;2792;52.452;9.752;2022-10-15T05:08:29;63.97;;;23.73;;
5539;SDS011;2792;52.452;9.752;2022-10-15T05:10:58;58.07;;;22.20;;
5539;SDS011;2792;52.452;9.752;2022-10-15T05:13:26;68.43;;;24.07;;
5539;SDS011;2792;52.452;9.752;2022-10-15T05:15:52;57.67;;;21.97;;
5539;SDS011;2792;52.452;9.752;2022-10-15T05:18:19;63.30;;;21.90;;
5539;SDS011;2792;52.452;9.752;2022-10-15T05:20:46;54.70;;;20.70;;
5539;SDS011;2792;52.452;9.752;2022-10-15T05:23:13;48.17;;;18.97;;
5539;SDS011;2792;52.452;9.752;2022-10-15T05:25:47;44.93;;;19.17;;
5539;SDS011;2792;52.452;9.752;2022-10-15T05:28:14;53.87;;;20.60;;
5539;SDS011;2792;52.452;9.752;2022-10-15T05:30:40;63.03;;;21.90;;
5539;SDS011;2792;52.452;9.752;2022-10-15T05:33:09;57.03;;;20.97;;
5539;SDS011;2792;52.452;9.752;2022-10-15T05:35:36;57.97;;;21.07;;
5539;SDS011;2792;52.452;9.752;2022-10-15T05:38:03;61.07;;;21.70;;
5539;SDS011;2792;52.452;9.752;2022-10-15T05:40:30;56.93;;;20.67;;
5539;SDS011;2792;52.452;9.752;2022-10-15T05:42:58;60.87;;;21.67;;
5539;SDS011;2792;52.452;9.752;2022-10-15T05:45:25;55.50;;;19.37;;
5539;SDS011;2792;52.452;9.752;2022-10-15T05:47:52;52.63;;;20.80;;
5539;SDS011;2792;52.452;9.752;2022-10-15T05:50:19;59.00;;;22.27;;
5539;SDS011;2792;52.452;9.752;2022-10-15T05:52:46;46.63;;;19.30;;
5539;SDS011;2792;52.452;9.752;2022-10-15T05:55:13;49.27;;;18.80;;
5539;SDS011;2792;52.452;9.752;2022-10-15T05:57:40;49.10;;;20.80;;
5539;SDS011;2792;52.452;9.752;2022-10-15T06:00:08;55.73;;;21.30;;
5539;SDS011;2792;52.452;9.752;2022-10-15T06:02:36;56.67;;;21.27;;
5539;SDS011;2792;52.452;9.752;2022-10-15T06:05:03;58.57;;;23.40;;
5539;SDS011;2792;52.452;9.752;2022-10-15T06:07:30;56.80;;;22.10;;
5539;SDS011;2792;52.452;9.752;2022-10-15T06:09:57;52.57;;;20.30;;
5539;SDS011;2792;52.452;9.752;2022-10-15T06:12:24;57.10;;;21.50;;
5539;SDS011;2792;52.452;9.752;2022-10-15T06:14:50;50.37;;;18.93;;
5539;SDS011;2792;52.452;9.752;2022-10-15T06:17:18;48.03;;;18.27;;
5539;SDS011;2792;52.452;9.752;2022-10-15T06:19:45;53.13;;;22.30;;
5539;SDS011;2792;52.452;9.752;2022-10-15T06:22:12;60.27;;;24.00;;
5539;SDS011;2792;52.452;9.752;2022-10-15T06:24:38;56.80;;;21.50;;
5539;SDS011;2792;52.452;9.752;2022-10-15T06:27:05;49.40;;;20.50;;
5539;SDS011;2792;52.452;9.752;2022-10-15T06:29:33;50.30;;;19.70;;
5539;SDS011;2792;52.452;9.752;2022-10-15T06:31:59;42.63;;;18.80;;
5539;SDS011;2792;52.452;9.752;2022-10-15T06:34:28;44.00;;;18.97;;
5539;SDS011;2792;52.452;9.752;2022-10-15T06:36:55;46.67;;;20.00;;
5539;SDS011;2792;52.452;9.752;2022-10-15T06:39:21;53.10;;;21.90;;
5539;SDS011;2792;52.452;9.752;2022-10-15T06:41:48;43.43;;;17.60;;
5539;SDS011;2792;52.452;9.752;2022-10-15T06:44:14;48.90;;;19.90;;
5539;SDS011;2792;52.452;9.752;2022-10-15T06:46:41;45.40;;;19.60;;
5539;SDS011;2792;52.452;9.752;2022-10-15T06:49:08;41.63;;;18.37;;
5539;SDS011;2792;52.452;9.752;2022-10-15T06:51:36;41.17;;;18.47;;
5539;SDS011;2792;52.452;9.752;2022-10-15T06:54:02;36.07;;;16.20;;
5539;SDS011;2792;52.452;9.752;2022-10-15T06:56:29;49.87;;;19.03;;
5539;SDS011;2792;52.452;9.752;2022-10-15T06:58:56;37.97;;;17.00;;
5539;SDS011;2792;52.452;9.752;2022-10-15T07:01:23;49.17;;;20.03;;
5539;SDS011;2792;52.452;9.752;2022-10-15T07:03:49;40.90;;;17.93;;
5539;SDS011;2792;52.452;9.752;2022-10-15T07:06:16;48.23;;;19.97;;
5539;SDS011;2792;52.452;9.752;2022-10-15T07:08:44;44.23;;;18.27;;
5539;SDS011;2792;52.452;9.752;2022-10-15T07:11:11;46.43;;;20.23;;
5539;SDS011;2792;52.452;9.752;2022-10-15T07:13:37;46.20;;;20.00;;
5539;SDS011;2792;52.452;9.752;2022-10-15T07:16:04;38.20;;;17.53;;
5539;SDS011;2792;52.452;9.752;2022-10-15T07:18:32;37.33;;;19.67;;
5539;SDS011;2792;52.452;9.752;2022-10-15T07:20:59;52.10;;;21.37;;
5539;SDS011;2792;52.452;9.752;2022-10-15T07:23:25;43.70;;;19.10;;
5539;SDS011;2792;52.452;9.752;2022-10-15T07:25:53;43.00;;;18.07;;
5539;SDS011;2792;52.452;9.752;2022-10-15T07:28:22;49.17;;;20.20;;
5539;SDS011;2792;52.452;9.752;2022-10-15T07:30:48;39.10;;;18.33;;
5539;SDS011;2792;52.452;9.752;2022-10-15T07:33:15;51.50;;;22.67;;
5539;SDS011;2792;52.452;9.752;2022-10-15T07:35:42;49.47;;;20.50;;
5539;SDS011;2792;52.452;9.752;2022-10-15T07:38:09;44.10;;;19.17;;
5539;SDS011;2792;52.452;9.752;2022-10-15T07:40:35;49.87;;;20.90;;
5539;SDS011;2792;52.452;9.752;2022-10-15T07:43:06;43.43;;;18.57;;
5539;SDS011;2792;52.452;9.752;2022-10-15T07:45:32;34.23;;;17.20;;
5539;SDS011;2792;52.452;9.752;2022-10-15T07:48:00;41.30;;;18.73;;
5539;SDS011;2792;52.452;9.752;2022-10-15T07:50:26;46.80;;;20.67;;
5539;SDS011;2792;52.452;9.752;2022-10-15T07:52:53;49.80;;;22.30;;
5539;SDS011;2792;52.452;9.752;2022-10-15T07:55:19;41.80;;;19.77;;
5539;SDS011;2792;52.452;9.752;2022-10-15T07:57:46;35.20;;;17.93;;
5539;SDS011;2792;52.452;9.752;2022-10-15T08:00:14;39.70;;;20.30;;
5539;SDS011;2792;52.452;9.752;2022-10-15T08:02:41;41.30;;;20.27;;
5539;SDS011;2792;52.452;9.752;2022-10-15T08:05:08;37.53;;;18.83;;
5539;SDS011;2792;52.452;9.752;2022-10-15T08:07:34;36.90;;;19.07;;
5539;SDS011;2792;52.452;9.752;2022-10-15T08:10:01;49.63;;;21.97;;
5539;SDS011;2792;52.452;9.752;2022-10-15T08:12:29;39.67;;;20.43;;
5539;SDS011;2792;52.452;9.752;2022-10-15T08:14:56;33.47;;;18.83;;
5539;SDS011;2792;52.452;9.752;2022-10-15T08:17:24;38.13;;;19.43;;
5539;SDS011;2792;52.452;9.752;2022-10-15T08:19:50;37.17;;;20.20;;
5539;SDS011;2792;52.452;9.752;2022-10-15T08:22:17;36.57;;;20.17;;
5539;SDS011;2792;52.452;9.752;2022-10-15T08:24:43;34.90;;;19.87;;
5539;SDS011;2792;52.452;9.752;2022-10-15T08:27:10;44.30;;;22.53;;
5539;SDS011;2792;52.452;9.752;2022-10-15T08:29:36;39.53;;;21.00;;
5539;SDS011;2792;52.452;9.752;2022-10-15T08:32:03;40.13;;;21.07;;
5539;SDS011;2792;52.452;9.752;2022-10-15T08:34:31;47.60;;;23.87;;
5539;SDS011;2792;52.452;9.752;2022-10-15T08:36:57;45.27;;;22.90;;
5539;SDS011;2792;52.452;9.752;2022-10-15T08:39:24;40.83;;;21.43;;
5539;SDS011;2792;52.452;9.752;2022-10-15T08:41:51;45.07;;;23.73;;
5539;SDS011;2792;52.452;9.752;2022-10-15T08:44:20;38.60;;;21.17;;
5539;SDS011;2792;52.452;9.752;2022-10-15T08:46:49;40.93;;;23.70;;
5539;SDS011;2792;52.452;9.752;2022-10-15T08:49:21;35.63;;;21.60;;
5539;SDS011;2792;52.452;9.752;2022-10-15T08:51:56;35.97;;;21.13;;
5539;SDS011;2792;52.452;9.752;2022-10-15T08:54:27;40.67;;;24.50;;
5539;SDS011;2792;52.452;9.752;2022-10-15T08:57:00;35.97;;;22.57;;
5539;SDS011;2792;52.452;9.752;2022-10-15T08:59:34;36.77;;;22.60;;
5539;SDS011;2792;52.452;9.752;2022-10-15T09:02:07;40.50;;;22.93;;
5539;SDS011;2792;52.452;9.752;2022-10-15T09:04:40;37.67;;;23.90;;
5539;SDS011;2792;52.452;9.752;2022-10-15T09:07:16;39.53;;;24.10;;
5539;SDS011;2792;52.452;9.752;2022-10-15T09:09:47;40.30;;;23.63;;
5539;SDS011;2792;52.452;9.752;2022-10-15T09:12:19;36.90;;;23.27;;
5539;SDS011;2792;52.452;9.752;2022-10-15T09:14:54;37.40;;;23.40;;
5539;SDS011;2792;52.452;9.752;2022-10-15T09:17:23;36.07;;;22.70;;
5539;SDS011;2792;52.452;9.752;2022-10-15T09:19:51;33.07;;;21.07;;
5539;SDS011;2792;52.452;9.752;2022-10-15T09:22:22;37.70;;;22.20;;
5539;SDS011;2792;52.452;9.752;2022-10-15T09:24:50;36.40;;;22.50;;
5539;SDS011;2792;52.452;9.752;2022-10-15T09:27:19;35.27;;;21.80;;
5539;SDS011;2792;52.452;9.752;2022-10-15T09:29:50;36.70;;;22.60;;
5539;SDS011;2792;52.452;9.752;2022-10-15T09:32:24;35.57;;;22.27;;
5539;SDS011;2792;52.452;9.752;2022-10-15T09:34:58;32.63;;;20.33;;
5539;SDS011;2792;52.452;9.752;2022-10-15T09:37:28;31.90;;;20.47;;
5539;SDS011;2792;52.452;9.752;2022-10-15T09:42:52;30.53;;;19.40;;
5539;SDS011;2792;52.452;9.752;2022-10-15T09:45:20;29.67;;;18.77;;
5539;SDS011;2792;52.452;9.752;2022-10-15T09:47:48;27.40;;;18.83;;
5539;SDS011;2792;52.452;9.752;2022-10-15T09:50:15;25.90;;;17.60;;
5539;SDS011;2792;52.452;9.752;2022-10-15T09:52:47;28.30;;;18.30;;
5539;SDS011;2792;52.452;9.752;2022-10-15T09:55:25;27.43;;;18.07;;
5539;SDS011;2792;52.452;9.752;2022-10-15T09:58:05;32.40;;;19.00;;
5539;SDS011;2792;52.452;9.752;2022-10-15T10:03:25;25.80;;;16.60;;
5539;SDS011;2792;52.452;9.752;2022-10-15T10:06:00;26.07;;;16.97;;
5539;SDS011;2792;52.452;9.752;2022-10-15T10:08:30;24.27;;;16.57;;
5539;SDS011;2792;52.452;9.752;2022-10-15T10:10:59;27.73;;;18.87;;
5539;SDS011;2792;52.452;9.752;2022-10-15T10:13:29;27.53;;;17.23;;
5539;SDS011;2792;52.452;9.752;2022-10-15T10:16:00;25.80;;;15.90;;
5539;SDS011;2792;52.452;9.752;2022-10-15T10:18:28;18.80;;;13.57;;
5539;SDS011;2792;52.452;9.752;2022-10-15T10:20:56;23.10;;;14.40;;
5539;SDS011;2792;52.452;9.752;2022-10-15T10:23:27;18.23;;;12.30;;
5539;SDS011;2792;52.452;9.752;2022-10-15T10:25:58;13.63;;;10.70;;
5539;SDS011;2792;52.452;9.752;2022-10-15T10:28:26;13.83;;;10.73;;
5539;SDS011;2792;52.452;9.752;2022-10-15T10:31:00;13.17;;;10.47;;
5539;SDS011;2792;52.452;9.752;2022-10-15T10:33:30;12.70;;;9.87;;
5539;SDS011;2792;52.452;9.752;2022-10-15T10:35:59;10.20;;;8.60;;
5539;SDS011;2792;52.452;9.752;2022-10-15T10:38:28;14.87;;;9.10;;
5539;SDS011;2792;52.452;9.752;2022-10-15T10:40:57;11.53;;;9.77;;
5539;SDS011;2792;52.452;9.752;2022-10-15T10:43:29;13.53;;;9.83;;
5539;SDS011;2792;52.452;9.752;2022-10-15T10:45:58;11.87;;;9.63;;
5539;SDS011;2792;52.452;9.752;2022-10-15T10:48:27;12.67;;;8.93;;
5539;SDS011;2792;52.452;9.752;2022-10-15T10:51:01;14.27;;;10.40;;
5539;SDS011;2792;52.452;9.752;2022-10-15T10:53:30;12.43;;;8.40;;
5539;SDS011;2792;52.452;9.752;2022-10-15T10:55:59;11.70;;;9.70;;
5539;SDS011;2792;52.452;9.752;2022-10-15T10:58:28;10.13;;;8.03;;
5539;SDS011;2792;52.452;9.752;2022-10-15T11:00:54;9.00;;;7.53;;
5539;SDS011;2792;52.452;9.752;2022-10-15T11:03:28;10.93;;;8.70;;
5539;SDS011;2792;52.452;9.752;2022-10-15T11:06:00;10.47;;;8.07;;
5539;SDS011;2792;52.452;9.752;2022-10-15T11:08:50;9.80;;;7.67;;
5539;SDS011;2792;52.452;9.752;2022-10-15T11:11:25;13.07;;;9.70;;
5539;SDS011;2792;52.452;9.752;2022-10-15T11:13:58;9.53;;;8.53;;
5539;SDS011;2792;52.452;9.752;2022-10-15T11:16:31;10.53;;;8.30;;
5539;SDS011;2792;52.452;9.752;2022-10-15T11:19:04;8.93;;;8.03;;
5539;SDS011;2792;52.452;9.752;2022-10-15T11:21:39;10.23;;;7.70;;
5539;SDS011;2792;52.452;9.752;2022-10-15T11:24:14;8.10;;;6.87;;
5539;SDS011;2792;52.452;9.752;2022-10-15T11:26:47;9.60;;;7.67;;
5539;SDS011;2792;52.452;9.752;2022-10-15T11:29:22;9.67;;;7.37;;
5539;SDS011;2792;52.452;9.752;2022-10-15T11:31:57;7.73;;;6.87;;
5539;SDS011;2792;52.452;9.752;2022-10-15T11:34:31;9.00;;;7.90;;
5539;SDS011;2792;52.452;9.752;2022-10-15T11:37:09;9.10;;;7.33;;
5539;SDS011;2792;52.452;9.752;2022-10-15T11:39:56;7.97;;;7.17;;
5539;SDS011;2792;52.452;9.752;2022-10-15T11:42:29;7.90;;;6.60;;
5539;SDS011;2792;52.452;9.752;2022-10-15T11:45:02;11.30;;;7.43;;
5539;SDS011;2792;52.452;9.752;2022-10-15T11:47:44;11.70;;;6.40;;
5539;SDS011;2792;52.452;9.752;2022-10-15T11:50:20;8.57;;;6.80;;
5539;SDS011;2792;52.452;9.752;2022-10-15T11:52:58;7.63;;;6.47;;
5539;SDS011;2792;52.452;9.752;2022-10-15T11:55:33;8.13;;;6.67;;
5539;SDS011;2792;52.452;9.752;2022-10-15T11:58:05;8.37;;;7.17;;
5539;SDS011;2792;52.452;9.752;2022-10-15T12:00:37;8.97;;;7.57;;
5539;SDS011;2792;52.452;9.752;2022-10-15T12:03:06;7.67;;;6.70;;
5539;SDS011;2792;52.452;9.752;2022-10-15T12:05:40;7.23;;;6.47;;
5539;SDS011;2792;52.452;9.752;2022-10-15T12:08:11;9.23;;;7.07;;
5539;SDS011;2792;52.452;9.752;2022-10-15T12:10:50;7.70;;;6.50;;
5539;SDS011;2792;52.452;9.752;2022-10-15T12:13:24;9.70;;;7.30;;
5539;SDS011;2792;52.452;9.752;2022-10-15T12:15:55;9.53;;;7.60;;
5539;SDS011;2792;52.452;9.752;2022-10-15T12:18:32;8.07;;;5.97;;
5539;SDS011;2792;52.452;9.752;2022-10-15T12:21:02;6.87;;;6.20;;
5539;SDS011;2792;52.452;9.752;2022-10-15T12:23:38;7.33;;;6.23;;
5539;SDS011;2792;52.452;9.752;2022-10-15T12:28:54;10.83;;;5.93;;
5539;SDS011;2792;52.452;9.752;2022-10-15T12:31:22;6.43;;;5.10;;
5539;SDS011;2792;52.452;9.752;2022-10-15T12:33:50;5.30;;;4.50;;
5539;SDS011;2792;52.452;9.752;2022-10-15T12:36:21;5.60;;;5.10;;
5539;SDS011;2792;52.452;9.752;2022-10-15T12:38:54;5.87;;;4.47;;
5539;SDS011;2792;52.452;9.752;2022-10-15T12:41:32;5.93;;;4.50;;
5539;SDS011;2792;52.452;9.752;2022-10-15T12:44:03;5.87;;;4.60;;
5539;SDS011;2792;52.452;9.752;2022-10-15T12:46:34;5.23;;;4.37;;
5539;SDS011;2792;52.452;9.752;2022-10-15T12:49:02;6.10;;;4.20;;
5539;SDS011;2792;52.452;9.752;2022-10-15T12:55:14;4.77;;;3.97;;
5539;SDS011;2792;52.452;9.752;2022-10-15T12:57:51;4.00;;;3.60;;
5539;SDS011;2792;52.452;9.752;2022-10-15T13:00:33;5.30;;;4.37;;
5539;SDS011;2792;52.452;9.752;2022-10-15T13:03:08;4.73;;;4.30;;
5539;SDS011;2792;52.452;9.752;2022-10-15T13:05:47;8.27;;;4.60;;
5539;SDS011;2792;52.452;9.752;2022-10-15T13:08:15;5.00;;;3.67;;
5539;SDS011;2792;52.452;9.752;2022-10-15T13:10:48;5.30;;;4.20;;
5539;SDS011;2792;52.452;9.752;2022-10-15T13:13:21;5.67;;;4.20;;
5539;SDS011;2792;52.452;9.752;2022-10-15T13:15:50;5.77;;;3.77;;
5539;SDS011;2792;52.452;9.752;2022-10-15T13:18:20;4.33;;;3.93;;
5539;SDS011;2792;52.452;9.752;2022-10-15T13:20:48;4.57;;;3.63;;
5539;SDS011;2792;52.452;9.752;2022-10-15T13:23:19;5.20;;;3.90;;
5539;SDS011;2792;52.452;9.752;2022-10-15T13:25:46;5.13;;;3.80;;
5539;SDS011;2792;52.452;9.752;2022-10-15T13:28:31;4.90;;;4.03;;
5539;SDS011;2792;52.452;9.752;2022-10-15T13:31:00;5.27;;;4.00;;
5539;SDS011;2792;52.452;9.752;2022-10-15T13:33:28;4.47;;;4.07;;
5539;SDS011;2792;52.452;9.752;2022-10-15T13:36:03;5.00;;;3.87;;
5539;SDS011;2792;52.452;9.752;2022-10-15T13:38:30;4.30;;;3.33;;
5539;SDS011;2792;52.452;9.752;2022-10-15T13:40:57;4.67;;;3.50;;
5539;SDS011;2792;52.452;9.752;2022-10-15T13:43:25;5.37;;;4.20;;
5539;SDS011;2792;52.452;9.752;2022-10-15T13:45:54;4.20;;;3.70;;
5539;SDS011;2792;52.452;9.752;2022-10-15T13:48:22;5.37;;;3.37;;
5539;SDS011;2792;52.452;9.752;2022-10-15T13:50:51;5.17;;;4.07;;
5539;SDS011;2792;52.452;9.752;2022-10-15T13:53:21;3.73;;;3.33;;
5539;SDS011;2792;52.452;9.752;2022-10-15T13:55:51;3.70;;;3.40;;
5539;SDS011;2792;52.452;9.752;2022-10-15T13:58:20;4.33;;;3.43;;
5539;SDS011;2792;52.452;9.752;2022-10-15T14:00:48;4.57;;;3.30;;
5539;SDS011;2792;52.452;9.752;2022-10-15T14:03:18;4.20;;;3.30;;
5539;SDS011;2792;52.452;9.752;2022-10-15T14:05:47;3.23;;;2.93;;
5539;SDS011;2792;52.452;9.752;2022-10-15T14:08:17;3.97;;;3.33;;
5539;SDS011;2792;52.452;9.752;2022-10-15T14:10:45;4.40;;;3.63;;
5539;SDS011;2792;52.452;9.752;2022-10-15T14:13:12;3.50;;;3.20;;
5539;SDS011;2792;52.452;9.752;2022-10-15T14:15:40;3.87;;;3.03;;
5539;SDS011;2792;52.452;9.752;2022-10-15T14:18:09;3.50;;;3.10;;
5539;SDS011;2792;52.452;9.752;2022-10-15T14:20:38;3.07;;;2.77;;
5539;SDS011;2792;52.452;9.752;2022-10-15T14:23:13;6.50;;;4.03;;
5539;SDS011;2792;52.452;9.752;2022-10-15T14:25:41;3.00;;;2.70;;
5539;SDS011;2792;52.452;9.752;2022-10-15T14:28:15;2.77;;;2.57;;
5539;SDS011;2792;52.452;9.752;2022-10-15T14:30:42;2.77;;;2.57;;
5539;SDS011;2792;52.452;9.752;2022-10-15T14:36:06;2.40;;;2.20;;
5539;SDS011;2792;52.452;9.752;2022-10-15T14:38:39;8.63;;;2.40;;
5539;SDS011;2792;52.452;9.752;2022-10-15T14:41:17;2.03;;;1.93;;
5539;SDS011;2792;52.452;9.752;2022-10-15T14:43:58;3.50;;;2.00;;
5539;SDS011;2792;52.452;9.752;2022-10-15T14:46:33;2.33;;;2.13;;
5539;SDS011;2792;52.452;9.752;2022-10-15T14:49:02;2.13;;;2.00;;
5539;SDS011;2792;52.452;9.752;2022-10-15T14:51:30;1.80;;;1.70;;
5539;SDS011;2792;52.452;9.752;2022-10-15T14:53:57;5.20;;;2.10;;
5539;SDS011;2792;52.452;9.752;2022-10-15T14:56:27;1.93;;;1.83;;
5539;SDS011;2792;52.452;9.752;2022-10-15T14:58:56;2.13;;;1.60;;
5539;SDS011;2792;52.452;9.752;2022-10-15T15:01:23;1.50;;;1.40;;
5539;SDS011;2792;52.452;9.752;2022-10-15T15:03:52;1.70;;;1.60;;
5539;SDS011;2792;52.452;9.752;2022-10-15T15:06:21;1.60;;;1.40;;
5539;SDS011;2792;52.452;9.752;2022-10-15T15:08:49;1.23;;;1.13;;
5539;SDS011;2792;52.452;9.752;2022-10-15T15:11:17;1.50;;;1.40;;
5539;SDS011;2792;52.452;9.752;2022-10-15T15:13:45;1.60;;;1.50;;
5539;SDS011;2792;52.452;9.752;2022-10-15T15:16:12;1.63;;;1.53;;
5539;SDS011;2792;52.452;9.752;2022-10-15T15:18:40;2.33;;;1.47;;
5539;SDS011;2792;52.452;9.752;2022-10-15T15:21:09;1.10;;;1.00;;
5539;SDS011;2792;52.452;9.752;2022-10-15T15:23:37;2.87;;;1.30;;
5539;SDS011;2792;52.452;9.752;2022-10-15T15:26:05;1.10;;;1.00;;
5539;SDS011;2792;52.452;9.752;2022-10-15T15:28:32;1.37;;;1.27;;